Latest Coastal Weather Observations for Townsville

IDQ60701

Issued at 2:35 pm EST Monday 20 October 2014 (issued every 10 minutes, with the page automatically refreshed every 10 minutes)

About coastal observations | Map of coastal stations | Coastal observations for QLD | Marine services | Other Formats
Station Details ID: 032040 Name: TOWNSVILLE AERO Lat: -19.25 Lon: 146.77 Height: 4.34 m
Data from the previous 72 hours. | See also: Recent months at Townsville
Date/Time
EST
Temp

°C
Wind Pressure Rain
since 9am
mm
Weather Cloud Vis
km
Sea
Height
m
Swell
Dir
 
Speed
knots
Gust
knots
hPa Trend Height
m
Period
s
Dir
20/02:30pm 28.9 E 22 28 1017.4 - 0.0 - - 10 - - - -
20/02:00pm 28.7 E 22 28 1017.5 - 0.0 - - 10 - - - -
20/01:30pm 28.5 E 20 27 1017.9 - 0.0 - - 10 - - - -
20/01:00pm 28.6 E 20 30 1018.3 - 0.0 - - 10 - - - -
20/12:58pm 28.8 E 20 30 1018.3 - 0.0 - - 10 - - - -
20/12:30pm 29.4 ENE 21 28 1018.7 - 0.0 - - 10 - - - -
20/12:00pm 28.5 ENE 21 25 1019.2 F 0.0 Haze Mostly clear 25 - - - -
20/11:30am 27.7 ENE 20 26 1019.8 - 0.0 - Partly cloudy 10 - - - -
20/11:00am 28.4 E 18 26 1020.3 - 0.0 - Mostly clear 10 - - - -
20/10:30am 28.3 ESE 15 20 1020.5 - 0.0 - Mostly clear 10 - - - -
20/10:00am 27.1 E 15 21 1020.9 - 0.0 - Mostly clear 10 - - - -
20/09:30am 26.9 ESE 15 21 1021.3 - 0.0 - Mostly clear 10 - - - -
20/08:30am 25.9 ESE 15 19 1021.4 - 0.0 - Mostly clear 10 - - - -
20/08:00am 25.0 SSE 12 17 1021.4 - 0.0 - Mostly clear 10 - - - -
20/07:30am 24.4 SE 13 19 1021.2 - 0.0 - Mostly clear 10 - - - -
20/07:00am 23.0 SE 8 10 1020.9 - 0.0 - Mostly clear 10 - - - -
20/06:30am 20.7 S 7 9 1020.5 - 0.0 - Mostly clear 10 - - - -
20/06:00am 20.2 SSW 6 8 1020.2 R 0.0 Haze Mostly clear 20 - - - -
20/05:30am 20.5 SSW 5 8 1019.8 - 0.0 - Partly cloudy 10 - - - -
20/05:00am 20.6 S 7 8 1019.4 - 0.0 - Partly cloudy 10 - - - -
20/04:30am 20.4 S 5 6 1019.3 - 0.0 - Partly cloudy 10 - - - -
20/04:00am 20.2 CALM 0 0 1019.1 - 0.0 - Partly cloudy 10 - - - -
20/03:30am 20.3 S 5 6 1019.0 - 0.0 - Partly cloudy 10 - - - -
20/03:00am 20.4 SSW 7 8 1018.9 - 0.0 - - 10 - - - -
20/02:30am 20.7 SSW 6 8 1019.4 - 0.0 - - 10 - - - -
20/02:00am 21.7 SSE 8 11 1019.7 - 0.0 - Partly cloudy 10 - - - -
20/01:30am 21.6 SSE 8 10 1020.0 - 0.0 - - 10 - - - -
20/01:00am 21.9 SSE 9 13 1020.2 - 0.0 - - 10 - - - -
20/12:30am 22.1 SSE 9 13 1020.6 - 0.0 - - 10 - - - -
20/12:00am 22.5 SE 11 16 1020.7 - 0.0 - - 10 - - - -
 
Date/Time
EST
Temp

°C
Wind Pressure Rain
since 9am
mm
Weather Cloud Vis
km
Sea
Height
m
Swell
Dir
 
Speed
knots
Gust
knots
hPa Trend Height
m
Period
s
Dir
19/11:30pm 22.8 SE 12 19 1020.9 - 0.0 - - 10 - - - -
19/11:00pm 22.9 ESE 14 18 1020.9 - 0.0 - - 10 - - - -
19/10:30pm 23.1 ESE 16 20 1021.1 - 0.0 - Mostly clear 10 - - - -
19/10:00pm 23.3 ESE 15 20 1021.1 - 0.0 - Mostly clear 10 - - - -
19/09:30pm 23.6 SE 14 19 1021.1 - 0.0 - Mostly clear 10 - - - -
19/09:00pm 24.0 ESE 19 26 1020.7 R 0.0 Haze Mostly clear 20 - - - -
19/08:55pm 24.0 ESE 16 26 1020.8 - 0.0 - Mostly clear 10 - - - -
19/08:30pm 24.2 ESE 18 24 1020.6 - 0.0 - Mostly clear 10 - - - -
19/08:00pm 24.5 E 14 22 1020.1 - 0.0 - Partly cloudy 10 - - - -
19/07:38pm 24.3 ESE 17 27 1020.0 - 0.0 - Partly cloudy 10 - - - -
19/07:30pm 24.2 ESE 16 21 1019.8 - 0.0 - Partly cloudy 10 - - - -
19/07:15pm 24.3 E 16 26 1019.6 - 0.0 - Mostly clear 10 - - - -
19/07:00pm 24.3 E 14 20 1019.6 - 0.0 - Mostly clear 10 - - - -
19/06:30pm 24.3 E 15 22 1019.2 - 0.0 - Mostly clear 10 - - - -
19/06:00pm 24.5 E 18 26 1018.8 R 0.0 Haze Mostly clear 20 - - - -
19/05:42pm 24.9 E 20 30 1018.7 - 0.0 - Mostly clear 10 - - - -
19/05:30pm 25.2 E 22 29 1018.5 - 0.0 - Mostly clear 10 - - - -
19/05:00pm 25.4 E 19 27 1018.2 - 0.0 - Mostly clear 10 - - - -
19/04:30pm 26.5 E 21 26 1017.8 - 0.0 - Mostly clear 10 - - - -
19/04:00pm 27.2 ENE 19 25 1017.5 - 0.0 - Mostly clear 10 - - - -
19/03:30pm 27.5 E 18 26 1017.6 - 0.0 - Mostly clear 10 - - - -
19/03:00pm 27.9 E 21 29 1017.5 R 0.0 Haze Mostly clear 20 - - - -
19/02:54pm 27.9 ENE 21 29 1017.6 - 0.0 - Mostly clear 10 - - - -
19/02:47pm 28.0 E 19 25 1017.7 - 0.0 - Mostly clear 10 - - - -
19/02:30pm 27.8 ENE 20 25 1017.9 - 0.0 - Mostly clear 10 - - - -
19/02:00pm 28.7 E 21 26 1018.2 - 0.0 - Mostly clear 10 - - - -
19/01:30pm 28.3 E 22 27 1018.4 - 0.0 - - 10 - - - -
19/01:00pm 29.0 ENE 22 29 1018.8 - 0.0 - Mostly clear 10 - - - -
19/12:30pm 28.1 E 22 29 1019.3 - 0.0 - Mostly clear 10 - - - -
19/12:00pm 28.3 E 21 28 1019.5 F 0.0 Haze Mostly clear 30 - - - -
19/11:30am 28.7 E 18 26 1020.0 - 0.0 - Mostly clear 10 - - - -
19/11:00am 28.4 E 19 24 1020.3 - 0.0 - Mostly clear 10 - - - -
19/10:30am 28.3 E 17 24 1020.7 - 0.0 - - 10 - - - -
19/10:00am 27.8 E 16 27 1021.0 - 0.0 - Mostly clear 10 - - - -
19/09:52am 27.8 ESE 16 27 1021.0 - 0.0 - Mostly clear 10 - - - -
19/09:30am 26.9 ESE 17 23 1021.2 - 0.0 - Mostly clear 10 - - - -
19/09:00am 26.2 ESE 17 21 1021.3 F 0.0 Haze Mostly clear 25 - - - -
19/08:30am 26.4 ESE 17 25 1021.4 - 0.0 - Mostly clear 10 - - - -
19/08:22am 26.0 ESE 19 25 1021.5 - 0.0 - Mostly clear 10 - - - -
19/08:00am 25.6 SE 9 14 1021.5 - 0.0 - Mostly clear 10 - - - -
19/07:30am 24.0 SSE 9 12 1021.3 - 0.0 - Mostly clear 10 - - - -
19/07:00am 22.2 W 4 6 1021.0 - 0.0 - Mostly clear 10 - - - -
19/06:30am 20.0 SE 5 9 1020.6 - 0.0 - Mostly clear 10 - - - -
19/06:00am 20.7 ESE 8 10 1020.0 F 0.0 Haze Mostly clear 20 - - - -
19/05:30am 20.7 SSE 10 13 1019.6 - 0.0 - - 10 - - - -
19/05:00am 20.5 SSE 9 12 1019.4 - 0.0 - - 10 - - - -
19/04:30am 21.2 SSE 11 15 1019.2 - 0.0 - - 10 - - - -
19/04:00am 21.4 SSE 9 14 1019.1 - 0.0 - - 10 - - - -
19/03:30am 21.5 SSE 9 12 1019.3 - 0.0 - - 10 - - - -
19/03:00am 21.8 SE 8 11 1019.3 - 0.0 - - 10 - - - -
19/02:30am 22.0 SE 9 14 1019.4 - 0.0 - - 10 - - - -
19/02:00am 22.5 ESE 10 15 1019.6 - 0.0 - - 10 - - - -
19/01:30am 22.6 SE 11 16 1019.7 - 0.0 - - 10 - - - -
19/01:00am 22.8 ESE 12 16 1019.9 - 0.0 - - 10 - - - -
19/12:30am 22.7 ESE 12 18 1020.2 - 0.0 - Partly cloudy 10 - - - -
19/12:00am 22.9 ESE 12 16 1020.4 - 0.0 - Mostly clear 10 - - - -
 
Date/Time
EST
Temp

°C
Wind Pressure Rain
since 9am
mm
Weather Cloud Vis
km
Sea
Height
m
Swell
Dir
 
Speed
knots
Gust
knots
hPa Trend Height
m
Period
s
Dir
18/11:30pm 23.1 ESE 12 16 1020.7 - 0.0 - Partly cloudy 10 - - - -
18/11:00pm 23.2 ESE 11 15 1020.9 - 0.0 - Partly cloudy 10 - - - -
18/10:30pm 23.3 ESE 10 13 1021.0 - 0.0 - Mostly clear 10 - - - -
18/10:00pm 23.8 ESE 15 18 1020.8 - 0.0 - Mostly clear 10 - - - -
18/09:30pm 24.2 E 15 21 1020.7 - 0.0 - Mostly clear 10 - - - -
18/09:00pm 24.5 E 13 18 1020.4 R 0.0 Haze Mostly clear 25 - - - -
18/08:30pm 24.5 E 10 17 1020.3 - 0.0 - Mostly clear 10 - - - -
18/08:00pm 24.6 E 12 20 1020.1 - 0.0 - Mostly clear 10 - - - -
18/07:30pm 24.8 E 12 19 1019.9 - 0.0 - Mostly clear 10 - - - -
18/07:00pm 24.8 E 16 20 1019.5 - 0.0 - Mostly clear 10 - - - -
18/06:30pm 25.0 E 13 17 1019.1 - 0.0 - Mostly clear 10 - - - -
18/06:00pm 25.2 ENE 15 19 1018.5 R 0.0 Haze Mostly clear 25 - - - -
18/05:30pm 25.7 E 15 21 1018.0 - 0.0 - Mostly clear 10 - - - -
18/05:00pm 26.7 E 17 21 1017.6 - 0.0 - Mostly clear 10 - - - -
18/04:30pm 26.6 ENE 19 24 1017.2 - 0.0 - Mostly clear 10 - - - -
18/04:00pm 27.7 ENE 19 23 1016.9 - 0.0 - Mostly clear 10 - - - -
18/03:30pm 27.7 ENE 18 24 1016.8 - 0.0 - - 10 - - - -
18/03:00pm 28.1 ENE 17 22 1016.8 R 0.0 Fine Mostly clear 40 - - - -
18/02:30pm 28.4 ENE 17 20 1017.2 - 0.0 - - 10 - - - -
18/02:00pm 28.9 ENE 17 21 1017.5 - 0.0 - - 10 - - - -
18/01:30pm 29.2 ENE 17 22 1017.8 - 0.0 - - 10 - - - -
18/01:00pm 29.7 E 19 25 1018.0 - 0.0 - - 10 - - - -
18/12:30pm 30.0 E 18 26 1018.3 - 0.0 - - 10 - - - -
18/12:00pm 29.2 NE 16 21 1018.7 S 0.0 Fine Mostly clear 45 - - - -
18/11:30am 29.1 NE 14 18 1019.2 - 0.0 - Mostly clear 10 - - - -
18/11:00am 28.7 ENE 13 18 1019.7 - 0.0 - Mostly clear 10 - - - -
18/10:30am 27.2 NE 11 16 1020.1 - 0.0 - Mostly clear 10 - - - -
18/10:00am 27.3 NE 11 15 1020.3 - 0.0 - Mostly clear 10 - - - -
18/09:30am 26.6 E 11 13 1020.3 - 0.0 - Mostly clear 10 - - - -
18/09:00am 27.1 E 9 14 1020.1 R 0.0 Haze Mostly clear 30 - - - -
18/08:30am 26.0 ESE 9 15 1019.9 - 0.4 - Mostly clear 10 - - - -
18/08:00am 25.4 ESE 7 10 1019.8 - 0.4 - Mostly clear 10 - - - -
18/07:30am 24.2 SSE 6 8 1019.5 - 0.0 - Mostly clear 10 - - - -
18/07:00am 22.2 SSW 3 5 1019.1 - 0.0 - Mostly clear 10 - - - -
18/06:30am 19.9 CALM 0 0 1018.9 - 0.0 - Mostly clear 10 - - - -
18/06:00am 17.9 SW 4 4 1018.3 R 0.0 Haze Mostly clear 25 - - - -
18/05:30am 18.3 SSW 4 4 1018.1 - 0.0 - - 10 - - - -
18/05:00am 19.2 S 1 3 1018.0 - 0.0 - - 10 - - - -
18/04:30am 20.4 SSE 5 6 1017.6 - 0.0 - - 10 - - - -
18/04:00am 20.8 SE 5 6 1017.4 - 0.0 - - 10 - - - -
18/03:30am 20.9 SSE 5 6 1017.3 - 0.0 - - 10 - - - -
18/03:00am 21.2 SSE 6 7 1017.3 - 0.0 - - 10 - - - -
18/02:30am 21.6 SE 6 8 1017.3 - 0.0 - Partly cloudy 10 - - - -
18/02:00am 21.6 SSE 6 7 1017.2 - 0.0 - - 10 - - - -
18/01:30am 21.9 ESE 6 8 1017.4 - 0.0 - - 10 - - - -
18/01:00am 22.2 ESE 8 10 1017.7 - 0.0 - - 10 - - - -
18/12:30am 22.6 ESE 9 11 1017.8 - 0.0 - - 10 - - - -
18/12:00am 22.4 SE 8 10 1018.0 - 0.0 - - 10 - - - -
 
Date/Time
EST
Temp

°C
Wind Pressure Rain
since 9am
mm
Weather Cloud Vis
km
Sea
Height
m
Swell
Dir
 
Speed
knots
Gust
knots
hPa Trend Height
m
Period
s
Dir
17/11:30pm 22.6 SE 6 8 1018.4 - 0.0 - - 10 - - - -
17/11:00pm 22.2 SE 6 7 1018.5 - 0.0 - - 10 - - - -
17/10:30pm 23.0 ESE 6 8 1018.5 - 0.0 - - 10 - - - -
17/10:00pm 23.6 E 9 13 1018.3 - 0.0 - - 10 - - - -
17/09:30pm 23.6 E 8 11 1018.2 - 0.0 - - 10 - - - -
17/09:00pm 23.8 E 8 11 1017.8 - 0.0 - - 10 - - - -
17/08:30pm 24.3 E 11 15 1017.6 - 0.0 - - 10 - - - -
17/08:00pm 24.3 E 11 15 1017.4 - 0.0 - - 10 - - - -
17/07:30pm 24.4 E 11 14 1017.1 - 0.0 - - 10 - - - -
17/07:00pm 24.5 E 10 14 1016.6 - 0.0 - - 10 - - - -
17/06:30pm 24.6 E 13 16 1016.2 - 0.0 - - 10 - - - -
17/06:00pm 25.1 ENE 13 18 1015.6 - 0.0 - - 10 - - - -
17/05:30pm 25.7 ENE 14 18 1015.4 - 0.0 - - 10 - - - -
17/05:00pm 26.5 ENE 15 18 1015.0 - 0.0 - - 10 - - - -
17/04:30pm 26.7 ENE 15 18 1014.6 - 0.0 - - 10 - - - -
17/04:00pm 27.9 ENE 16 18 1014.4 - 0.0 - - 10 - - - -
17/03:30pm 28.1 ENE 14 18 1014.4 - 0.0 - - 10 - - - -
17/03:00pm 27.8 NE 14 18 1014.5 - 0.0 - Mostly clear 10 - - - -

Other Formats:

Comma delimited format used in spreadsheet applications
http://www.bom.gov.au/fwo/IDQ60701/IDQ60701.94294.axf

JavaScript Object Notation format (JSON) in row-major order
http://www.bom.gov.au/fwo/IDQ60701/IDQ60701.94294.json